Time;durP1;ratioP1;P1;durP2;ratioP2;P2;SDS_P1;SDS_P2;PMS_P1;PMS_P2;Temp;Humidity;BMP_temperature;BMP_pressure;BME280_temperature;BME280_humidity;BME280_pressure;Samples;Min_cycle;Max_cycle;Signal;HPM_P1;HPM_P2
2023/07/27 00:02:11;;;;;;;0.50;0.50;;;;;;;;;;5018573;28;20022;-82
2023/07/27 00:04:37;;;;;;;2.47;0.60;;;;;;;;;;5022335;28;20029;-82
2023/07/27 00:07:03;;;;;;;1.20;0.73;;;;;;;;;;5021042;28;20467;-81
2023/07/27 00:09:30;;;;;;;0.70;0.70;;;;;;;;;;5020473;28;20029;-81
2023/07/27 00:11:56;;;;;;;0.70;0.70;;;;;;;;;;5021889;28;20112;-82
2023/07/27 00:14:22;;;;;;;0.50;0.50;;;;;;;;;;5020940;28;20036;-81
2023/07/27 00:16:48;;;;;;;0.65;0.65;;;;;;;;;;5024442;28;20030;-81
2023/07/27 00:19:14;;;;;;;0.60;0.60;;;;;;;;;;5019267;28;20022;-81
2023/07/27 00:21:40;;;;;;;0.70;0.70;;;;;;;;;;5020589;28;20141;-81
2023/07/27 00:24:06;;;;;;;0.70;0.70;;;;;;;;;;4978500;28;1191796;-79
2023/07/27 00:26:33;;;;;;;0.70;0.70;;;;;;;;;;5018594;28;20034;-82
2023/07/27 00:28:59;;;;;;;0.68;0.40;;;;;;;;;;5030754;28;20049;-81
2023/07/27 00:31:25;;;;;;;0.70;0.70;;;;;;;;;;5047096;28;20018;-82
2023/07/27 00:33:51;;;;;;;0.70;0.68;;;;;;;;;;5057150;28;20032;-81
2023/07/27 00:36:17;;;;;;;1.08;0.85;;;;;;;;;;5040700;28;20026;-80
2023/07/27 00:38:43;;;;;;;0.68;0.68;;;;;;;;;;5040024;28;20028;-80
2023/07/27 00:41:09;;;;;;;0.90;0.70;;;;;;;;;;5023021;28;20033;-79
2023/07/27 00:43:35;;;;;;;0.55;0.50;;;;;;;;;;5017808;28;20164;-80
2023/07/27 00:46:02;;;;;;;0.65;0.45;;;;;;;;;;5017709;28;20064;-79
2023/07/27 00:48:29;;;;;;;0.60;0.60;;;;;;;;;;5018432;28;20367;-79
2023/07/27 00:50:55;;;;;;;0.68;0.68;;;;;;;;;;5020152;28;20052;-80
2023/07/27 00:53:21;;;;;;;0.68;0.65;;;;;;;;;;5023980;28;20024;-78
2023/07/27 00:55:47;;;;;;;0.60;0.60;;;;;;;;;;5036459;28;20037;-81
2023/07/27 00:58:14;;;;;;;0.75;0.75;;;;;;;;;;5028265;28;20506;-80
2023/07/27 01:00:43;;;;;;;0.98;0.98;;;;;;;;;;5022950;28;20040;-80
2023/07/27 01:03:09;;;;;;;0.60;0.60;;;;;;;;;;5017765;28;20506;-80
2023/07/27 01:05:37;;;;;;;0.65;0.65;;;;;;;;;;5017933;28;20014;-80
2023/07/27 01:08:03;;;;;;;0.95;0.85;;;;;;;;;;5017198;28;20041;-80
2023/07/27 01:10:42;;;;;;;0.90;0.90;;;;;;;;;;5019121;28;20026;-79
2023/07/27 01:13:31;;;;;;;0.90;0.90;;;;;;;;;;5018515;28;20033;-79
2023/07/27 01:15:59;;;;;;;0.82;0.82;;;;;;;;;;5012437;28;20045;-82
2023/07/27 01:18:29;;;;;;;0.55;0.55;;;;;;;;;;5018750;28;20229;-81
2023/07/27 01:21:05;;;;;;;1.27;1.17;;;;;;;;;;5019824;28;20498;-80
2023/07/27 01:23:50;;;;;;;0.90;0.90;;;;;;;;;;5020147;28;20084;-81
2023/07/27 01:26:19;;;;;;;0.80;0.80;;;;;;;;;;5020001;28;20383;-81
2023/07/27 01:29:04;;;;;;;0.80;0.80;;;;;;;;;;5034168;28;20398;-81
2023/07/27 01:31:41;;;;;;;0.80;0.80;;;;;;;;;;5036423;28;20014;-80
2023/07/27 01:34:11;;;;;;;0.77;0.77;;;;;;;;;;5035523;28;20018;-79
2023/07/27 01:36:38;;;;;;;0.75;0.75;;;;;;;;;;5034526;28;20013;-80
2023/07/27 01:39:07;;;;;;;0.90;0.90;;;;;;;;;;5025414;28;20026;-79
2023/07/27 01:41:36;;;;;;;0.80;0.80;;;;;;;;;;5022211;28;20029;-80
2023/07/27 01:44:03;;;;;;;0.90;0.90;;;;;;;;;;5018868;28;20161;-80
2023/07/27 01:46:32;;;;;;;1.25;1.13;;;;;;;;;;5020871;28;20025;-80
2023/07/27 01:49:00;;;;;;;0.73;0.70;;;;;;;;;;5021317;28;20033;-80
2023/07/27 01:51:27;;;;;;;0.75;0.75;;;;;;;;;;5019839;28;20041;-80
2023/07/27 01:53:55;;;;;;;0.70;0.70;;;;;;;;;;5031871;28;20032;-79
2023/07/27 01:56:22;;;;;;;0.80;0.80;;;;;;;;;;5029179;28;20053;-81
2023/07/27 01:58:49;;;;;;;0.55;0.55;;;;;;;;;;5042552;28;20024;-80
2023/07/27 02:01:15;;;;;;;1.10;1.00;;;;;;;;;;5043626;28;20029;-80
2023/07/27 02:03:41;;;;;;;0.88;0.88;;;;;;;;;;5028506;28;20026;-79
2023/07/27 02:06:07;;;;;;;0.68;0.68;;;;;;;;;;5027587;28;20014;-80
2023/07/27 02:08:33;;;;;;;0.80;0.80;;;;;;;;;;5035161;28;20163;-79
2023/07/27 02:11:05;;;;;;;0.65;0.65;;;;;;;;;;5032442;28;20022;-79
2023/07/27 02:13:34;;;;;;;0.60;0.60;;;;;;;;;;5039567;28;20022;-79
2023/07/27 02:16:14;;;;;;;0.70;0.70;;;;;;;;;;5034304;28;20026;-80
2023/07/27 02:18:41;;;;;;;1.20;1.10;;;;;;;;;;5027160;28;20022;-79
2023/07/27 02:21:08;;;;;;;1.08;0.98;;;;;;;;;;5019785;28;20034;-80
2023/07/27 02:23:34;;;;;;;1.05;0.80;;;;;;;;;;5026709;28;20047;-80
2023/07/27 02:26:00;;;;;;;1.05;0.80;;;;;;;;;;5038830;28;20118;-80
2023/07/27 02:28:28;;;;;;;0.88;0.88;;;;;;;;;;5039399;28;20112;-80
2023/07/27 02:30:54;;;;;;;0.60;0.60;;;;;;;;;;5049942;28;20339;-78
2023/07/27 02:33:20;;;;;;;0.80;0.73;;;;;;;;;;5049800;28;20120;-79
2023/07/27 02:35:46;;;;;;;0.50;0.50;;;;;;;;;;5049400;28;20032;-81
2023/07/27 02:38:12;;;;;;;0.75;0.70;;;;;;;;;;5044874;28;20033;-80
2023/07/27 02:40:38;;;;;;;0.75;0.50;;;;;;;;;;5051623;28;20057;-79
2023/07/27 02:43:04;;;;;;;0.68;0.68;;;;;;;;;;5052433;28;20029;-78
2023/07/27 02:45:33;;;;;;;0.57;0.57;;;;;;;;;;5035108;28;20089;-80
2023/07/27 02:47:59;;;;;;;0.68;0.68;;;;;;;;;;5016576;28;20486;-81
2023/07/27 02:50:25;;;;;;;0.47;0.47;;;;;;;;;;5017827;28;20022;-79
2023/07/27 02:52:51;;;;;;;0.55;0.55;;;;;;;;;;5019492;28;20440;-81
2023/07/27 02:55:18;;;;;;;0.63;0.60;;;;;;;;;;5048428;28;20116;-80
2023/07/27 02:57:44;;;;;;;0.60;0.60;;;;;;;;;;5040670;28;20029;-81
2023/07/27 03:00:10;;;;;;;0.75;0.63;;;;;;;;;;5038251;28;20490;-79
2023/07/27 03:02:36;;;;;;;0.70;0.70;;;;;;;;;;5037490;28;20490;-80
2023/07/27 03:05:06;;;;;;;0.45;0.43;;;;;;;;;;5037194;28;20042;-79
2023/07/27 03:07:33;;;;;;;0.63;0.63;;;;;;;;;;5037854;28;20029;-82
2023/07/27 03:09:59;;;;;;;0.75;0.65;;;;;;;;;;5035692;28;20085;-81
2023/07/27 03:12:25;;;;;;;0.40;0.40;;;;;;;;;;5035894;28;20072;-83
2023/07/27 03:14:51;;;;;;;0.57;0.57;;;;;;;;;;5031596;28;20165;-81
2023/07/27 03:17:17;;;;;;;0.50;0.50;;;;;;;;;;5016146;28;20029;-81
2023/07/27 03:19:43;;;;;;;0.40;0.40;;;;;;;;;;5017854;28;20025;-81
2023/07/27 03:22:09;;;;;;;0.50;0.50;;;;;;;;;;5018415;28;20133;-80
2023/07/27 03:24:35;;;;;;;0.65;0.55;;;;;;;;;;5018339;28;20037;-80
2023/07/27 03:27:01;;;;;;;0.57;0.57;;;;;;;;;;5037551;28;20089;-80
2023/07/27 03:29:28;;;;;;;0.55;0.55;;;;;;;;;;5035784;28;20089;-80
2023/07/27 03:31:54;;;;;;;0.57;0.57;;;;;;;;;;5036459;28;20032;-79
2023/07/27 03:34:20;;;;;;;0.45;0.45;;;;;;;;;;5042539;28;20034;-79
2023/07/27 03:36:46;;;;;;;0.50;0.50;;;;;;;;;;5032141;28;20025;-79
2023/07/27 03:39:12;;;;;;;0.52;0.52;;;;;;;;;;5029773;28;20041;-78
2023/07/27 03:41:38;;;;;;;0.57;0.57;;;;;;;;;;5031083;28;20033;-81
2023/07/27 03:44:04;;;;;;;0.40;0.40;;;;;;;;;;5015599;28;20014;-79
2023/07/27 03:46:30;;;;;;;0.80;0.80;;;;;;;;;;5015913;28;20102;-80
2023/07/27 03:48:56;;;;;;;0.70;0.70;;;;;;;;;;5015277;28;20022;-81
2023/07/27 03:51:23;;;;;;;0.73;0.73;;;;;;;;;;5015524;28;20084;-81
2023/07/27 03:53:49;;;;;;;0.60;0.60;;;;;;;;;;5017509;28;20032;-81
2023/07/27 03:56:15;;;;;;;0.82;0.82;;;;;;;;;;5016182;28;20022;-82
2023/07/27 03:58:41;;;;;;;0.60;0.60;;;;;;;;;;5016370;28;20037;-82
2023/07/27 04:01:07;;;;;;;0.60;0.60;;;;;;;;;;5018417;28;20037;-82
2023/07/27 04:03:33;;;;;;;0.75;0.63;;;;;;;;;;5017480;28;20029;-82
2023/07/27 04:05:59;;;;;;;0.90;0.90;;;;;;;;;;5017445;28;20089;-82
2023/07/27 04:08:25;;;;;;;1.27;0.95;;;;;;;;;;5022334;28;20037;-81
2023/07/27 04:10:51;;;;;;;0.68;0.68;;;;;;;;;;5021315;28;20399;-82
2023/07/27 04:13:18;;;;;;;1.08;0.77;;;;;;;;;;5028144;28;20080;-82
2023/07/27 04:15:44;;;;;;;0.75;0.75;;;;;;;;;;5020140;28;20058;-80
2023/07/27 04:18:10;;;;;;;0.80;0.80;;;;;;;;;;5019908;28;20073;-81
2023/07/27 04:20:36;;;;;;;0.70;0.70;;;;;;;;;;5017829;28;20052;-81
2023/07/27 04:23:02;;;;;;;0.73;0.73;;;;;;;;;;5018280;28;20038;-82
2023/07/27 04:25:28;;;;;;;0.60;0.60;;;;;;;;;;5018315;28;20067;-81
2023/07/27 04:27:54;;;;;;;0.70;0.70;;;;;;;;;;5013051;28;20029;-78
2023/07/27 04:30:20;;;;;;;0.85;0.85;;;;;;;;;;5016182;28;20030;-79
2023/07/27 04:32:47;;;;;;;0.82;0.70;;;;;;;;;;5024011;28;20036;-79
2023/07/27 04:35:13;;;;;;;0.73;0.73;;;;;;;;;;5035411;28;20030;-79
2023/07/27 04:37:39;;;;;;;1.00;0.90;;;;;;;;;;5037687;28;20103;-79
2023/07/27 04:40:06;;;;;;;1.00;0.90;;;;;;;;;;5038142;28;20033;-78
2023/07/27 04:42:32;;;;;;;0.82;0.73;;;;;;;;;;5042131;28;20057;-78
2023/07/27 04:44:58;;;;;;;0.60;0.60;;;;;;;;;;5027194;28;20038;-78
2023/07/27 04:47:24;;;;;;;0.80;0.80;;;;;;;;;;5031732;28;20026;-79
2023/07/27 04:49:50;;;;;;;1.08;0.80;;;;;;;;;;5043556;28;20482;-79
2023/07/27 04:52:16;;;;;;;0.80;0.80;;;;;;;;;;5040453;28;20037;-78
2023/07/27 04:54:42;;;;;;;0.80;0.80;;;;;;;;;;5051157;28;20027;-77
2023/07/27 04:57:08;;;;;;;0.70;0.70;;;;;;;;;;5055872;28;20040;-79
2023/07/27 04:59:34;;;;;;;0.60;0.60;;;;;;;;;;5036984;28;20025;-80
2023/07/27 05:02:01;;;;;;;1.30;1.15;;;;;;;;;;5038332;28;20029;-78
2023/07/27 05:04:27;;;;;;;0.98;0.80;;;;;;;;;;5037330;28;20347;-79
2023/07/27 05:06:53;;;;;;;0.68;0.60;;;;;;;;;;5036502;28;20040;-79
2023/07/27 05:09:20;;;;;;;0.77;0.77;;;;;;;;;;5039219;28;20029;-79
2023/07/27 05:11:46;;;;;;;1.38;1.00;;;;;;;;;;5040724;28;20087;-77
2023/07/27 05:14:12;;;;;;;1.27;1.08;;;;;;;;;;5040394;28;20474;-77
2023/07/27 05:16:38;;;;;;;0.80;0.80;;;;;;;;;;5025491;28;20022;-79
2023/07/27 05:19:04;;;;;;;0.93;0.93;;;;;;;;;;5017837;28;20049;-78
2023/07/27 05:21:31;;;;;;;0.82;0.73;;;;;;;;;;5016789;28;20034;-78
2023/07/27 05:23:57;;;;;;;0.80;0.63;;;;;;;;;;5019592;28;20033;-80
2023/07/27 05:26:23;;;;;;;0.70;0.70;;;;;;;;;;5040357;28;20498;-78
2023/07/27 05:28:49;;;;;;;0.63;0.63;;;;;;;;;;5037583;28;20064;-79
2023/07/27 05:31:15;;;;;;;0.80;0.80;;;;;;;;;;5039409;28;20079;-80
2023/07/27 05:33:41;;;;;;;0.90;0.90;;;;;;;;;;5023100;28;20052;-79
2023/07/27 05:36:08;;;;;;;1.08;0.95;;;;;;;;;;5022545;28;20049;-79
2023/07/27 05:38:34;;;;;;;1.00;0.95;;;;;;;;;;5018177;28;20026;-79
2023/07/27 05:41:01;;;;;;;0.93;0.93;;;;;;;;;;5018832;28;20034;-80
2023/07/27 05:43:27;;;;;;;0.80;0.80;;;;;;;;;;5021828;28;20037;-80
2023/07/27 05:45:53;;;;;;;1.02;0.93;;;;;;;;;;5019326;28;20072;-79
2023/07/27 05:48:19;;;;;;;0.82;0.82;;;;;;;;;;5021801;28;20456;-80
2023/07/27 05:50:45;;;;;;;0.85;0.85;;;;;;;;;;5018782;28;20049;-80
2023/07/27 05:53:11;;;;;;;0.98;0.85;;;;;;;;;;5017763;28;20036;-80
2023/07/27 05:55:37;;;;;;;0.88;0.85;;;;;;;;;;5019875;28;20030;-80
2023/07/27 05:58:03;;;;;;;0.90;0.90;;;;;;;;;;5018413;28;20022;-78
2023/07/27 06:00:30;;;;;;;0.88;0.88;;;;;;;;;;5021782;28;20061;-78
2023/07/27 06:02:56;;;;;;;1.45;1.35;;;;;;;;;;5019479;28;20026;-79
2023/07/27 06:05:23;;;;;;;1.92;0.90;;;;;;;;;;5021629;28;20079;-78
2023/07/27 06:07:49;;;;;;;0.80;0.80;;;;;;;;;;5052484;28;20045;-78
2023/07/27 06:10:16;;;;;;;0.82;0.77;;;;;;;;;;5056278;28;20041;-77
2023/07/27 06:12:42;;;;;;;1.02;1.00;;;;;;;;;;5055709;28;20045;-78
2023/07/27 06:15:09;;;;;;;0.88;0.88;;;;;;;;;;5047314;28;20033;-78
2023/07/27 06:17:35;;;;;;;0.80;0.80;;;;;;;;;;5024799;28;20141;-79
2023/07/27 06:20:02;;;;;;;0.73;0.73;;;;;;;;;;5022664;28;20018;-78
2023/07/27 06:22:28;;;;;;;1.00;0.90;;;;;;;;;;5019618;28;20034;-79
2023/07/27 06:24:54;;;;;;;1.00;0.90;;;;;;;;;;5018733;28;20052;-78
2023/07/27 06:27:20;;;;;;;1.27;0.93;;;;;;;;;;5027070;28;20021;-78
2023/07/27 06:29:46;;;;;;;1.08;1.08;;;;;;;;;;5015906;28;20510;-78
2023/07/27 06:32:12;;;;;;;1.35;1.20;;;;;;;;;;5016815;28;20491;-78
2023/07/27 06:34:38;;;;;;;1.15;1.05;;;;;;;;;;5018740;28;20471;-78
2023/07/27 06:37:07;;;;;;;1.15;1.05;;;;;;;;;;5029429;28;20108;-77
2023/07/27 06:39:33;;;;;;;1.38;1.23;;;;;;;;;;5039832;28;20029;-78
2023/07/27 06:41:59;;;;;;;1.27;1.17;;;;;;;;;;5037499;28;20017;-77
2023/07/27 06:44:25;;;;;;;1.17;1.08;;;;;;;;;;5038040;28;20105;-79
2023/07/27 06:46:51;;;;;;;1.00;1.00;;;;;;;;;;5040198;28;20034;-78
2023/07/27 06:49:17;;;;;;;0.90;0.90;;;;;;;;;;5029578;28;20029;-78
2023/07/27 06:51:43;;;;;;;0.90;0.90;;;;;;;;;;5037959;28;20025;-78
2023/07/27 06:54:09;;;;;;;1.05;1.02;;;;;;;;;;5041194;28;20055;-78
2023/07/27 06:56:35;;;;;;;0.77;0.77;;;;;;;;;;5051979;28;20036;-76
2023/07/27 06:59:02;;;;;;;0.75;0.70;;;;;;;;;;5021124;28;20049;-78
2023/07/27 07:01:28;;;;;;;0.63;0.63;;;;;;;;;;5017767;28;20026;-77
2023/07/27 07:03:55;;;;;;;0.90;0.90;;;;;;;;;;5017249;28;20034;-80
2023/07/27 07:06:22;;;;;;;0.90;0.77;;;;;;;;;;5015777;28;20041;-79
2023/07/27 07:08:48;;;;;;;0.80;0.80;;;;;;;;;;5029544;28;20723;-79
2023/07/27 07:11:14;;;;;;;0.80;0.80;;;;;;;;;;5030045;28;20120;-79
2023/07/27 07:13:40;;;;;;;0.75;0.75;;;;;;;;;;5035458;28;20100;-78
2023/07/27 07:16:06;;;;;;;0.90;0.90;;;;;;;;;;5035592;28;20052;-78
2023/07/27 07:18:33;;;;;;;1.00;0.70;;;;;;;;;;5037929;28;20431;-80
2023/07/27 07:20:59;;;;;;;0.82;0.80;;;;;;;;;;5038869;28;20044;-77
2023/07/27 07:23:25;;;;;;;0.90;0.90;;;;;;;;;;5037918;28;20060;-79
2023/07/27 07:25:51;;;;;;;0.73;0.73;;;;;;;;;;5034890;28;20022;-78
2023/07/27 07:28:18;;;;;;;0.98;0.98;;;;;;;;;;5030735;28;20057;-79
2023/07/27 07:30:44;;;;;;;1.00;1.00;;;;;;;;;;5015083;28;20033;-78
2023/07/27 07:33:10;;;;;;;1.10;1.00;;;;;;;;;;5016527;28;20022;-78
2023/07/27 07:35:39;;;;;;;1.85;0.80;;;;;;;;;;5018402;28;20025;-79
2023/07/27 07:38:05;;;;;;;1.23;1.13;;;;;;;;;;5018486;28;20072;-79
2023/07/27 07:40:32;;;;;;;1.05;1.05;;;;;;;;;;5016691;28;20033;-78
2023/07/27 07:42:58;;;;;;;1.02;1.02;;;;;;;;;;5017914;28;20029;-79
2023/07/27 07:45:25;;;;;;;0.88;0.88;;;;;;;;;;5018679;28;20049;-79
2023/07/27 07:47:51;;;;;;;1.10;1.05;;;;;;;;;;5018035;28;20557;-78
2023/07/27 07:50:17;;;;;;;0.80;0.80;;;;;;;;;;5033238;28;20025;-79
2023/07/27 07:52:44;;;;;;;0.98;0.98;;;;;;;;;;5036835;28;20021;-79
2023/07/27 07:55:10;;;;;;;0.95;0.93;;;;;;;;;;5038066;28;20116;-79
2023/07/27 07:57:36;;;;;;;0.77;0.77;;;;;;;;;;5038513;28;20020;-79
2023/07/27 08:00:03;;;;;;;0.88;0.88;;;;;;;;;;5027858;28;20084;-78
2023/07/27 08:02:29;;;;;;;1.58;1.00;;;;;;;;;;5014632;28;20026;-79
2023/07/27 08:04:55;;;;;;;0.98;0.98;;;;;;;;;;5015913;28;20014;-78
2023/07/27 08:07:21;;;;;;;1.00;1.00;;;;;;;;;;5017569;28;20058;-81
2023/07/27 08:09:47;;;;;;;1.30;1.20;;;;;;;;;;5019153;28;20022;-79
2023/07/27 08:12:13;;;;;;;1.40;1.30;;;;;;;;;;5017880;28;20034;-77
2023/07/27 08:14:39;;;;;;;1.40;1.30;;;;;;;;;;5020220;28;20029;-79
2023/07/27 08:17:05;;;;;;;2.10;1.50;;;;;;;;;;5020370;28;20296;-79
2023/07/27 08:19:31;;;;;;;1.23;1.13;;;;;;;;;;5031697;28;20092;-79
2023/07/27 08:21:58;;;;;;;1.27;1.17;;;;;;;;;;5052100;28;20327;-79
2023/07/27 08:24:24;;;;;;;1.38;1.27;;;;;;;;;;5054019;28;20025;-79
2023/07/27 08:26:51;;;;;;;1.02;1.02;;;;;;;;;;5045800;28;20018;-80
2023/07/27 08:29:17;;;;;;;1.33;1.20;;;;;;;;;;5043595;28;20524;-78
2023/07/27 08:31:43;;;;;;;1.90;1.13;;;;;;;;;;5029043;28;20069;-78
2023/07/27 08:34:09;;;;;;;1.25;1.15;;;;;;;;;;5021898;28;20022;-78
2023/07/27 08:36:35;;;;;;;1.65;1.55;;;;;;;;;;5021970;28;20030;-78
2023/07/27 08:39:01;;;;;;;1.10;1.10;;;;;;;;;;5018803;28;20033;-78
2023/07/27 08:41:28;;;;;;;1.40;1.30;;;;;;;;;;5031657;28;20108;-77
2023/07/27 08:43:54;;;;;;;1.33;1.23;;;;;;;;;;5040291;28;20547;-77
2023/07/27 08:46:21;;;;;;;1.23;1.15;;;;;;;;;;5042013;28;20036;-78
2023/07/27 08:48:48;;;;;;;1.42;1.33;;;;;;;;;;5039290;28;20343;-78
2023/07/27 08:51:14;;;;;;;1.20;1.10;;;;;;;;;;5033128;28;20550;-79
2023/07/27 08:53:40;;;;;;;1.10;1.10;;;;;;;;;;5030498;28;20030;-78
2023/07/27 08:56:06;;;;;;;0.93;0.93;;;;;;;;;;5019454;28;20030;-78
2023/07/27 08:58:32;;;;;;;1.10;1.10;;;;;;;;;;5021557;28;20029;-78
2023/07/27 09:00:58;;;;;;;0.80;0.80;;;;;;;;;;5030231;28;20054;-78
2023/07/27 09:03:26;;;;;;;1.27;1.17;;;;;;;;;;5035588;28;20029;-78
2023/07/27 09:05:59;;;;;;;1.13;1.10;;;;;;;;;;5022855;28;20045;-80
2023/07/27 09:08:29;;;;;;;0.80;0.80;;;;;;;;;;5018394;28;20026;-80
2023/07/27 09:11:03;;;;;;;1.08;1.08;;;;;;;;;;5018665;28;20093;-79
2023/07/27 09:13:33;;;;;;;0.95;0.95;;;;;;;;;;5039045;28;20397;-79
2023/07/27 09:16:01;;;;;;;0.90;0.90;;;;;;;;;;5040534;28;20018;-80
2023/07/27 09:18:27;;;;;;;1.23;1.10;;;;;;;;;;5039104;28;20409;-78
2023/07/27 09:20:54;;;;;;;1.30;1.20;;;;;;;;;;5037630;28;20513;-78
2023/07/27 09:23:21;;;;;;;1.50;1.40;;;;;;;;;;5037481;28;20051;-78
2023/07/27 09:25:54;;;;;;;1.50;1.50;;;;;;;;;;5037374;28;20034;-79
2023/07/27 09:28:27;;;;;;;1.20;1.20;;;;;;;;;;5036909;28;20041;-79
2023/07/27 09:31:02;;;;;;;1.00;0.98;;;;;;;;;;5039542;28;20057;-79
2023/07/27 09:33:29;;;;;;;1.38;1.27;;;;;;;;;;5025320;28;20097;-79
2023/07/27 09:35:57;;;;;;;0.88;0.85;;;;;;;;;;5017602;28;20029;-79
2023/07/27 09:38:24;;;;;;;1.85;1.70;;;;;;;;;;5020797;28;20084;-77
2023/07/27 09:40:51;;;;;;;1.70;1.60;;;;;;;;;;5018059;28;20092;-78
2023/07/27 09:43:17;;;;;;;2.03;1.75;;;;;;;;;;5018788;28;20022;-78
2023/07/27 09:45:43;;;;;;;2.40;2.20;;;;;;;;;;5016251;28;20119;-79
2023/07/27 09:48:10;;;;;;;1.92;1.75;;;;;;;;;;5018054;28;20018;-79
2023/07/27 09:50:36;;;;;;;1.88;1.77;;;;;;;;;;5018490;28;20030;-79
2023/07/27 09:53:02;;;;;;;1.67;1.58;;;;;;;;;;5018538;28;20030;-78
2023/07/27 09:55:32;;;;;;;1.80;1.70;;;;;;;;;;5018638;28;20025;-78
2023/07/27 09:57:58;;;;;;;1.23;1.13;;;;;;;;;;5022471;28;20042;-77
2023/07/27 10:00:25;;;;;;;1.60;1.50;;;;;;;;;;5023512;28;20041;-77
2023/07/27 10:02:51;;;;;;;1.23;1.13;;;;;;;;;;5030582;28;20026;-76
2023/07/27 10:05:18;;;;;;;1.42;1.33;;;;;;;;;;5030199;28;20460;-78
2023/07/27 10:07:44;;;;;;;1.48;1.38;;;;;;;;;;5025550;28;20048;-77
2023/07/27 10:10:35;;;;;;;1.30;1.30;;;;;;;;;;5025282;28;20037;-78
2023/07/27 10:13:10;;;;;;;1.13;1.13;;;;;;;;;;5025565;28;20077;-78
2023/07/27 10:15:43;;;;;;;1.02;1.02;;;;;;;;;;5040394;28;20025;-79
2023/07/27 10:18:14;;;;;;;1.17;1.17;;;;;;;;;;5040605;28;20025;-78
2023/07/27 10:20:40;;;;;;;1.30;1.20;;;;;;;;;;5039754;28;20505;-79
2023/07/27 10:23:16;;;;;;;1.20;1.10;;;;;;;;;;5038156;28;20072;-79
2023/07/27 10:25:55;;;;;;;1.60;1.50;;;;;;;;;;5021640;28;20241;-79
2023/07/27 10:28:42;;;;;;;1.38;1.33;;;;;;;;;;5020704;28;20066;-79
2023/07/27 10:31:14;;;;;;;1.60;1.40;;;;;;;;;;5018752;28;20034;-78
2023/07/27 10:33:47;;;;;;;1.80;1.70;;;;;;;;;;5017409;28;20017;-78
2023/07/27 10:36:14;;;;;;;1.58;1.48;;;;;;;;;;5027038;28;20033;-77
2023/07/27 10:38:40;;;;;;;1.45;1.35;;;;;;;;;;5036723;28;20022;-79
2023/07/27 10:41:13;;;;;;;1.40;1.30;;;;;;;;;;5037553;28;20100;-79
2023/07/27 10:43:59;;;;;;;1.75;1.50;;;;;;;;;;5038214;28;20037;-78
2023/07/27 10:46:25;;;;;;;1.50;1.40;;;;;;;;;;5024169;28;20585;-79
2023/07/27 10:48:58;;;;;;;1.27;1.27;;;;;;;;;;5021448;28;20109;-78
2023/07/27 10:51:28;;;;;;;1.70;1.60;;;;;;;;;;5025953;28;20076;-77
2023/07/27 10:53:54;;;;;;;1.38;1.27;;;;;;;;;;5033940;28;20037;-77
2023/07/27 10:56:21;;;;;;;1.17;1.17;;;;;;;;;;5034167;28;20041;-78
2023/07/27 10:58:49;;;;;;;1.25;1.15;;;;;;;;;;5032822;28;20030;-78
2023/07/27 11:01:15;;;;;;;1.48;1.38;;;;;;;;;;5030923;28;20104;-76
2023/07/27 11:03:42;;;;;;;1.50;1.40;;;;;;;;;;5033885;28;20021;-77
2023/07/27 11:06:09;;;;;;;1.52;1.42;;;;;;;;;;5024858;28;20037;-79
2023/07/27 11:08:40;;;;;;;1.10;1.10;;;;;;;;;;5051731;22;20137;-78
2023/07/27 11:11:15;;;;;;;1.50;1.40;;;;;;;;;;5038013;28;20028;-78
2023/07/27 11:13:42;;;;;;;1.98;1.77;;;;;;;;;;5038659;28;20409;-77
2023/07/27 11:16:08;;;;;;;1.65;1.50;;;;;;;;;;5037088;28;20025;-77
2023/07/27 11:18:34;;;;;;;1.70;1.60;;;;;;;;;;5039179;28;20028;-80
2023/07/27 11:21:04;;;;;;;1.83;1.73;;;;;;;;;;5036461;28;20021;-77
2023/07/27 11:23:31;;;;;;;2.00;1.85;;;;;;;;;;5036584;28;20055;-77
2023/07/27 11:25:57;;;;;;;1.67;1.58;;;;;;;;;;5036626;28;20057;-79
2023/07/27 11:28:24;;;;;;;1.83;1.73;;;;;;;;;;5039429;28;20414;-77
2023/07/27 11:30:52;;;;;;;1.77;1.65;;;;;;;;;;5038142;28;20099;-78
2023/07/27 11:33:25;;;;;;;2.10;1.90;;;;;;;;;;5036443;28;20473;-78
2023/07/27 11:35:52;;;;;;;1.70;1.60;;;;;;;;;;5031427;28;20040;-76
2023/07/27 11:38:18;;;;;;;1.60;1.50;;;;;;;;;;5037311;28;20025;-78
2023/07/27 11:40:48;;;;;;;1.50;1.40;;;;;;;;;;5037213;28;20025;-78
2023/07/27 11:43:14;;;;;;;1.80;1.55;;;;;;;;;;5038299;28;20101;-76
2023/07/27 11:45:40;;;;;;;1.70;1.60;;;;;;;;;;5039579;28;20394;-76
2023/07/27 11:48:07;;;;;;;1.50;1.40;;;;;;;;;;5037962;28;20119;-76
2023/07/27 11:50:39;;;;;;;2.22;1.75;;;;;;;;;;5037968;28;20021;-78
2023/07/27 11:53:11;;;;;;;1.90;1.75;;;;;;;;;;5042517;28;20036;-77
2023/07/27 11:55:38;;;;;;;1.73;1.63;;;;;;;;;;5044561;28;20026;-79
2023/07/27 11:58:10;;;;;;;2.55;1.88;;;;;;;;;;5044240;28;20028;-78
2023/07/27 12:00:37;;;;;;;2.15;1.95;;;;;;;;;;5041932;28;20033;-78
2023/07/27 12:03:04;;;;;;;2.05;1.70;;;;;;;;;;5045000;28;20018;-77
2023/07/27 12:05:34;;;;;;;1.60;1.50;;;;;;;;;;5042052;28;20032;-77
2023/07/27 12:08:00;;;;;;;1.95;1.67;;;;;;;;;;5041092;28;20091;-77
2023/07/27 12:10:26;;;;;;;1.67;1.50;;;;;;;;;;5040190;28;20017;-78
2023/07/27 12:13:07;;;;;;;2.35;1.55;;;;;;;;;;5041335;28;20051;-78
2023/07/27 12:15:34;;;;;;;1.60;1.50;;;;;;;;;;5044323;28;20134;-77
2023/07/27 12:18:03;;;;;;;2.22;1.60;;;;;;;;;;5040537;28;20022;-77
2023/07/27 12:20:30;;;;;;;1.90;1.80;;;;;;;;;;5041066;28;20022;-77
2023/07/27 12:22:57;;;;;;;2.25;1.65;;;;;;;;;;5040838;28;20029;-78
2023/07/27 12:25:23;;;;;;;2.22;2.03;;;;;;;;;;5047455;28;20033;-77
2023/07/27 12:27:50;;;;;;;1.60;1.50;;;;;;;;;;5053065;28;20026;-77
2023/07/27 12:30:16;;;;;;;1.98;1.83;;;;;;;;;;5043220;28;20037;-79
2023/07/27 12:32:42;;;;;;;1.20;1.20;;;;;;;;;;5042598;28;20033;-79
2023/07/27 12:35:08;;;;;;;1.73;1.58;;;;;;;;;;5041108;28;20041;-79
2023/07/27 12:37:35;;;;;;;1.83;1.70;;;;;;;;;;5040750;28;20053;-76
2023/07/27 12:40:03;;;;;;;2.15;1.95;;;;;;;;;;5041227;28;20076;-78
2023/07/27 12:42:29;;;;;;;1.48;1.38;;;;;;;;;;5041111;28;20049;-78
2023/07/27 12:44:56;;;;;;;1.63;1.48;;;;;;;;;;5040271;28;20057;-76
2023/07/27 12:47:23;;;;;;;1.58;1.50;;;;;;;;;;5039886;28;20044;-77
2023/07/27 12:49:49;;;;;;;3.35;1.77;;;;;;;;;;5039893;28;20021;-78
2023/07/27 12:52:16;;;;;;;1.80;1.70;;;;;;;;;;5041712;28;20045;-78
2023/07/27 12:54:42;;;;;;;1.60;1.50;;;;;;;;;;5047588;28;20037;-77
2023/07/27 12:57:08;;;;;;;2.92;1.80;;;;;;;;;;5044272;28;20087;-78
2023/07/27 12:59:35;;;;;;;5.60;1.80;;;;;;;;;;5043599;28;20029;-77
2023/07/27 13:02:11;;;;;;;2.33;1.58;;;;;;;;;;5042270;28;20026;-78
2023/07/27 13:04:40;;;;;;;1.52;1.40;;;;;;;;;;5041588;28;20029;-81
2023/07/27 13:07:07;;;;;;;1.35;1.25;;;;;;;;;;5041026;28;20026;-77
2023/07/27 13:09:33;;;;;;;1.42;1.25;;;;;;;;;;5040644;28;20045;-76
2023/07/27 13:11:59;;;;;;;1.52;1.42;;;;;;;;;;5039918;28;20093;-77
2023/07/27 13:14:26;;;;;;;1.42;1.33;;;;;;;;;;5040067;28;20026;-78
2023/07/27 13:16:52;;;;;;;1.52;1.42;;;;;;;;;;5040347;28;20474;-78
2023/07/27 13:19:18;;;;;;;1.50;1.15;;;;;;;;;;5040632;28;20033;-78
2023/07/27 13:21:44;;;;;;;1.70;1.60;;;;;;;;;;5043756;28;20025;-77
2023/07/27 13:24:10;;;;;;;1.80;1.70;;;;;;;;;;5045960;28;20029;-79
2023/07/27 13:26:36;;;;;;;1.50;1.40;;;;;;;;;;5046357;28;20462;-77
2023/07/27 13:29:02;;;;;;;1.50;1.30;;;;;;;;;;5048161;28;20026;-78
2023/07/27 13:31:29;;;;;;;1.40;1.30;;;;;;;;;;5048878;28;20030;-78
2023/07/27 13:33:55;;;;;;;1.50;1.40;;;;;;;;;;5047557;28;20040;-77
2023/07/27 13:36:21;;;;;;;1.33;1.30;;;;;;;;;;5047189;28;20486;-79
2023/07/27 13:38:47;;;;;;;1.83;1.67;;;;;;;;;;5044151;28;20041;-78
2023/07/27 13:41:14;;;;;;;1.35;1.25;;;;;;;;;;5047474;28;20039;-78
2023/07/27 13:43:40;;;;;;;1.83;1.27;;;;;;;;;;5048050;28;20039;-77
2023/07/27 13:46:06;;;;;;;1.48;1.38;;;;;;;;;;5046586;28;20037;-78
2023/07/27 13:48:32;;;;;;;1.45;1.35;;;;;;;;;;5055572;28;20029;-76
2023/07/27 13:50:58;;;;;;;2.08;1.30;;;;;;;;;;5054098;28;20029;-77
2023/07/27 13:53:24;;;;;;;1.27;1.00;;;;;;;;;;5054027;28;20040;-76
2023/07/27 13:55:52;;;;;;;1.40;1.30;;;;;;;;;;5052653;28;20032;-77
2023/07/27 13:58:18;;;;;;;1.58;1.40;;;;;;;;;;5051542;28;20045;-79
2023/07/27 14:00:45;;;;;;;1.42;1.33;;;;;;;;;;5045580;28;20469;-78
2023/07/27 14:03:13;;;;;;;1.45;1.35;;;;;;;;;;5046965;28;20021;-78
2023/07/27 14:05:39;;;;;;;1.50;1.40;;;;;;;;;;5045424;28;20076;-79
2023/07/27 14:08:05;;;;;;;1.10;1.00;;;;;;;;;;5044585;28;20094;-79
2023/07/27 14:10:32;;;;;;;1.67;1.35;;;;;;;;;;5044294;28;20035;-78
2023/07/27 14:12:58;;;;;;;1.45;1.35;;;;;;;;;;5044079;28;20018;-79
2023/07/27 14:15:24;;;;;;;1.33;1.23;;;;;;;;;;5045957;28;20080;-79
2023/07/27 14:17:50;;;;;;;1.65;1.55;;;;;;;;;;5046415;28;20093;-77
2023/07/27 14:20:16;;;;;;;1.45;1.35;;;;;;;;;;5043074;28;20025;-77
2023/07/27 14:22:43;;;;;;;1.33;1.23;;;;;;;;;;5045883;28;20033;-79
2023/07/27 14:25:09;;;;;;;1.67;1.58;;;;;;;;;;5047063;28;20055;-79
2023/07/27 14:27:35;;;;;;;1.33;1.23;;;;;;;;;;5047173;28;20112;-78
2023/07/27 14:30:01;;;;;;;1.30;1.20;;;;;;;;;;5050585;28;20025;-77
2023/07/27 14:32:27;;;;;;;1.67;1.58;;;;;;;;;;5050629;28;20029;-77
2023/07/27 14:34:54;;;;;;;1.50;1.40;;;;;;;;;;5047916;28;20025;-78
2023/07/27 14:37:21;;;;;;;1.05;1.00;;;;;;;;;;5046538;28;20025;-78
2023/07/27 14:39:48;;;;;;;1.30;1.20;;;;;;;;;;5047970;28;20021;-79
2023/07/27 14:42:14;;;;;;;1.05;1.00;;;;;;;;;;5048174;28;20036;-78
2023/07/27 14:44:40;;;;;;;0.93;0.93;;;;;;;;;;5049019;28;20033;-78